Time,TemperatureF,DewpointF,PressureIn,WindDirection,WindDirectionDegrees,WindSpeedMPH,WindSpeedGustMPH,Humidity,HourlyPrecipIn,Conditions,Clouds,dailyrainin,SoftwareType,DateUTC
2013-05-25 01:18:00,82.2,66.9,30.40,North,0,0.0,0.0,60,0.00,CLR,SCT,0.00,WeatherDisplay:10.37,2013-05-25 05:18:00,
2013-05-25 01:35:00,82.2,66.9,30.40,North,0,0.0,0.0,60,0.00,CLR,SCT,0.00,WeatherDisplay:10.37,2013-05-25 05:35:00,
2013-05-25 03:09:00,82.2,66.9,30.40,North,0,0.0,0.0,60,0.00,CLR,SCT,0.00,WeatherDisplay:10.37,2013-05-25 07:09:00,
2013-05-25 04:51:00,82.2,66.9,30.40,North,0,0.0,0.0,60,0.00,CLR,SCT,0.00,WeatherDisplay:10.37,2013-05-25 08:51:00,
2013-05-25 07:44:00,82.2,66.9,30.40,North,0,0.0,0.0,60,0.00,CLR,SCT,0.00,WeatherDisplay:10.37,2013-05-25 11:44:00,
2013-05-25 08:40:00,82.2,66.9,30.40,North,0,0.0,0.0,60,0.00,CLR,SCT,0.00,WeatherDisplay:10.37,2013-05-25 12:40:00,
2013-05-25 09:05:00,77.0,55.8,30.40,North,0,0.0,0.0,48,0.00,CLR,SCT,0.00,WeatherDisplay:10.37,2013-05-25 13:05:00,
2013-05-25 09:10:00,81.5,71.2,30.40,North,0,0.0,0.0,71,0.00,CLR,SCT,0.00,WeatherDisplay:10.37,2013-05-25 13:10:00,
2013-05-25 09:15:00,81.9,71.5,30.40,North,0,0.0,0.0,71,0.00,CLR,SCT,0.00,WeatherDisplay:10.37,2013-05-25 13:15:00,
2013-05-25 09:20:00,81.9,70.7,30.40,North,0,0.0,0.0,69,0.00,CLR,SCT,0.00,WeatherDisplay:10.37,2013-05-25 13:20:00,
2013-05-25 09:25:00,82.0,71.3,30.40,North,0,0.0,0.0,70,0.00,CLR,SCT,0.00,WeatherDisplay:10.37,2013-05-25 13:25:00,
2013-05-25 09:30:00,82.0,71.3,30.40,North,0,0.0,0.0,70,0.00,CLR,SCT,0.00,WeatherDisplay:10.37,2013-05-25 13:30:00,
2013-05-25 09:35:00,82.0,70.9,30.40,North,0,0.0,0.0,69,0.00,CLR,SCT,0.00,WeatherDisplay:10.37,2013-05-25 13:35:00,
2013-05-25 09:40:00,82.2,70.2,30.40,North,0,0.0,0.0,67,0.00,CLR,SCT,0.00,WeatherDisplay:10.37,2013-05-25 13:40:00,
2013-05-25 09:46:00,82.2,69.7,30.40,North,0,0.0,0.0,66,0.00,CLR,SCT,0.00,WeatherDisplay:10.37,2013-05-25 13:46:00,
2013-05-25 09:51:00,82.4,70.8,30.40,North,0,0.0,0.0,68,0.00,CLR,SCT,0.00,WeatherDisplay:10.37,2013-05-25 13:51:00,
2013-05-25 09:56:00,82.2,68.8,30.40,North,0,0.0,0.0,64,0.00,CLR,SCT,0.00,WeatherDisplay:10.37,2013-05-25 13:56:00,
2013-05-25 10:01:00,82.6,70.5,30.40,North,0,0.0,0.0,67,0.00,CLR,SCT,0.00,WeatherDisplay:10.37,2013-05-25 14:01:00,
2013-05-25 10:06:00,82.6,69.2,30.40,North,0,0.0,0.0,64,0.00,CLR,SCT,0.00,WeatherDisplay:10.37,2013-05-25 14:06:00,
2013-05-25 10:11:00,82.9,71.7,30.40,North,0,0.0,0.0,69,0.00,CLR,SCT,0.00,WeatherDisplay:10.37,2013-05-25 14:11:00,
2013-05-25 10:16:00,82.9,70.4,30.40,North,0,0.0,0.0,66,0.00,CLR,SCT,0.00,WeatherDisplay:10.37,2013-05-25 14:16:00,
2013-05-25 10:21:00,82.9,69.5,30.40,North,0,0.0,0.0,64,0.00,CLR,SCT,0.00,WeatherDisplay:10.37,2013-05-25 14:21:00,
2013-05-25 10:26:00,82.9,70.0,30.40,North,0,0.0,0.0,65,0.00,CLR,SCT,0.00,WeatherDisplay:10.37,2013-05-25 14:26:00,
2013-05-25 10:31:00,82.9,68.6,30.40,North,0,0.0,0.0,62,0.00,CLR,SCT,0.00,WeatherDisplay:10.37,2013-05-25 14:31:00,
2013-05-25 10:36:00,83.1,69.2,30.40,North,0,0.0,0.0,63,0.00,CLR,SCT,0.00,WeatherDisplay:10.37,2013-05-25 14:36:00,
2013-05-25 10:41:00,82.9,70.0,30.40,North,0,0.0,0.0,65,0.00,CLR,SCT,0.00,WeatherDisplay:10.37,2013-05-25 14:41:00,
2013-05-25 10:46:00,83.1,69.7,30.40,North,0,0.0,0.0,64,0.00,CLR,SCT,0.00,WeatherDisplay:10.37,2013-05-25 14:46:00,
2013-05-25 10:51:00,83.1,68.3,30.40,North,0,0.0,0.0,61,0.00,CLR,SCT,0.00,WeatherDisplay:10.37,2013-05-25 14:51:00,
2013-05-25 10:56:00,83.1,70.1,30.40,North,0,0.0,0.0,65,0.00,CLR,SCT,0.00,WeatherDisplay:10.37,2013-05-25 14:56:00,
2013-05-25 11:01:00,83.3,67.0,30.40,North,0,0.0,0.0,58,0.00,CLR,SCT,0.00,WeatherDisplay:10.37,2013-05-25 15:01:00,
2013-05-25 11:06:00,83.5,62.9,30.40,North,0,0.0,0.0,50,0.00,CLR,SCT,0.00,WeatherDisplay:10.37,2013-05-25 15:06:00,
2013-05-25 11:11:00,83.7,60.1,30.40,North,0,0.0,0.0,45,0.00,CLR,SCT,0.00,WeatherDisplay:10.37,2013-05-25 15:11:00,
2013-05-25 11:16:00,84.0,58.5,30.40,North,0,0.0,0.0,42,0.00,CLR,SCT,0.00,WeatherDisplay:10.37,2013-05-25 15:16:00,
2013-05-25 11:21:00,84.0,58.5,30.40,North,0,0.0,0.0,42,0.00,CLR,SCT,0.00,WeatherDisplay:10.37,2013-05-25 15:21:00,
2013-05-25 11:26:00,84.0,57.8,30.40,North,0,0.0,0.0,41,0.00,CLR,SCT,0.00,WeatherDisplay:10.37,2013-05-25 15:26:00,
2013-05-25 11:31:00,84.0,57.8,30.40,North,0,0.0,0.0,41,0.00,CLR,SCT,0.00,WeatherDisplay:10.37,2013-05-25 15:31:00,
2013-05-25 11:36:00,84.0,56.4,30.40,North,0,0.0,0.0,39,0.00,CLR,SCT,0.00,WeatherDisplay:10.37,2013-05-25 15:36:00,
2013-05-25 11:41:00,84.2,56.6,30.40,North,0,0.0,0.0,39,0.00,CLR,SCT,0.00,WeatherDisplay:10.37,2013-05-25 15:41:00,
2013-05-25 11:46:00,84.0,56.4,30.40,North,0,0.0,0.0,39,0.00,CLR,SCT,0.00,WeatherDisplay:10.37,2013-05-25 15:46:00,
2013-05-25 11:51:00,84.2,56.6,30.40,North,0,0.0,0.0,39,0.00,CLR,SCT,0.00,WeatherDisplay:10.37,2013-05-25 15:51:00,
2013-05-25 11:56:00,84.6,57.6,30.40,North,0,0.0,0.0,40,0.00,CLR,SCT,0.00,WeatherDisplay:10.37,2013-05-25 15:56:00,
2013-05-25 12:01:00,84.6,56.9,30.40,North,0,0.0,0.0,39,0.00,CLR,SCT,0.00,WeatherDisplay:10.37,2013-05-25 16:01:00,
2013-05-25 12:06:00,84.4,56.7,30.40,North,0,0.0,0.0,39,0.00,CLR,SCT,0.00,WeatherDisplay:10.37,2013-05-25 16:06:00,
2013-05-25 12:11:00,84.4,56.7,30.40,North,0,0.0,0.0,39,0.00,CLR,SCT,0.00,WeatherDisplay:10.37,2013-05-25 16:11:00,
2013-05-25 12:16:00,84.4,56.0,30.40,North,0,0.0,0.0,38,0.00,CLR,SCT,0.00,WeatherDisplay:10.37,2013-05-25 16:16:00,
2013-05-25 12:21:00,84.4,56.0,30.40,North,0,0.0,0.0,38,0.00,CLR,SCT,0.00,WeatherDisplay:10.37,2013-05-25 16:21:00,
2013-05-25 12:26:00,84.6,56.2,30.40,North,0,0.0,0.0,38,0.00,CLR,SCT,0.00,WeatherDisplay:10.37,2013-05-25 16:26:00,
2013-05-25 12:31:00,84.7,56.3,30.40,North,0,0.0,0.0,38,0.00,CLR,SCT,0.00,WeatherDisplay:10.37,2013-05-25 16:31:00,
2013-05-25 12:36:00,84.7,56.3,30.40,North,0,0.0,0.0,38,0.00,CLR,SCT,0.00,WeatherDisplay:10.37,2013-05-25 16:36:00,
2013-05-25 12:41:00,84.9,57.2,30.40,North,0,0.0,0.0,39,0.00,CLR,SCT,0.00,WeatherDisplay:10.37,2013-05-25 16:41:00,
2013-05-25 12:46:00,84.9,57.2,30.40,North,0,0.0,0.0,39,0.00,CLR,SCT,0.00,WeatherDisplay:10.37,2013-05-25 16:46:00,
2013-05-25 12:51:00,84.9,57.2,30.40,North,0,0.0,0.0,39,0.00,CLR,SCT,0.00,WeatherDisplay:10.37,2013-05-25 16:51:00,
2013-05-25 12:56:00,85.1,57.4,30.40,North,0,0.0,0.0,39,0.00,CLR,SCT,0.00,WeatherDisplay:10.37,2013-05-25 16:56:00,
2013-05-25 13:01:00,85.1,56.6,30.40,North,0,0.0,0.0,38,0.00,CLR,SCT,0.00,WeatherDisplay:10.37,2013-05-25 17:01:00,
2013-05-25 13:06:00,84.9,56.5,30.40,North,0,0.0,0.0,38,0.00,CLR,SCT,0.00,WeatherDisplay:10.37,2013-05-25 17:06:00,
2013-05-25 13:11:00,85.1,57.4,30.40,North,0,0.0,0.0,39,0.00,CLR,SCT,0.00,WeatherDisplay:10.37,2013-05-25 17:11:00,
2013-05-25 13:16:00,85.3,56.8,30.40,North,0,0.0,0.0,38,0.00,CLR,SCT,0.00,WeatherDisplay:10.37,2013-05-25 17:16:00,
2013-05-25 13:21:00,85.5,57.0,30.40,North,0,0.0,0.0,38,0.00,CLR,SCT,0.00,WeatherDisplay:10.37,2013-05-25 17:21:00,
2013-05-25 13:26:00,85.5,57.7,30.40,North,0,0.0,0.0,39,0.00,CLR,SCT,0.00,WeatherDisplay:10.37,2013-05-25 17:26:00,
2013-05-25 13:31:00,85.5,57.0,30.40,North,0,0.0,0.0,38,0.00,CLR,SCT,0.00,WeatherDisplay:10.37,2013-05-25 17:31:00,
2013-05-25 13:36:00,85.5,57.7,30.40,North,0,0.0,0.0,39,0.00,CLR,SCT,0.00,WeatherDisplay:10.37,2013-05-25 17:36:00,
2013-05-25 13:41:00,85.5,57.7,30.40,North,0,0.0,0.0,39,0.00,CLR,SCT,0.00,WeatherDisplay:10.37,2013-05-25 17:41:00,
2013-05-25 13:46:00,85.5,57.0,30.40,North,0,0.0,0.0,38,0.00,CLR,SCT,0.00,WeatherDisplay:10.37,2013-05-25 17:46:00,
2013-05-25 13:51:00,85.5,56.2,30.40,North,0,0.0,0.0,37,0.00,CLR,SCT,0.00,WeatherDisplay:10.37,2013-05-25 17:51:00,
2013-05-25 13:56:00,85.6,57.1,30.40,North,0,0.0,0.0,38,0.00,CLR,SCT,0.00,WeatherDisplay:10.37,2013-05-25 17:56:00,
2013-05-25 14:01:00,85.8,57.3,30.40,North,0,0.0,0.0,38,0.00,CLR,SCT,0.00,WeatherDisplay:10.37,2013-05-25 18:01:00,
2013-05-25 14:06:00,85.8,57.3,30.40,North,0,0.0,0.0,38,0.00,CLR,SCT,0.00,WeatherDisplay:10.37,2013-05-25 18:06:00,
2013-05-25 14:11:00,85.8,57.3,30.40,North,0,0.0,0.0,38,0.00,CLR,SCT,0.00,WeatherDisplay:10.37,2013-05-25 18:11:00,
2013-05-25 14:16:00,86.2,56.9,30.40,North,0,0.0,0.0,37,0.00,CLR,SCT,0.00,WeatherDisplay:10.37,2013-05-25 18:16:00,
2013-05-25 14:21:00,86.0,57.4,30.40,North,0,0.0,0.0,38,0.00,CLR,SCT,0.00,WeatherDisplay:10.37,2013-05-25 18:21:00,
2013-05-25 14:26:00,86.0,57.4,30.40,North,0,0.0,0.0,38,0.00,CLR,SCT,0.00,WeatherDisplay:10.37,2013-05-25 18:26:00,
2013-05-25 14:31:00,86.4,57.8,30.40,North,0,0.0,0.0,38,0.00,CLR,SCT,0.00,WeatherDisplay:10.37,2013-05-25 18:31:00,
2013-05-25 14:36:00,86.4,57.8,30.40,North,0,0.0,0.0,38,0.00,CLR,SCT,0.00,WeatherDisplay:10.37,2013-05-25 18:36:00,
2013-05-25 14:41:00,86.2,56.9,30.40,North,0,0.0,0.0,37,0.00,CLR,SCT,0.00,WeatherDisplay:10.37,2013-05-25 18:41:00,
2013-05-25 14:46:00,86.2,57.6,30.40,North,0,0.0,0.0,38,0.00,CLR,SCT,0.00,WeatherDisplay:10.37,2013-05-25 18:46:00,
2013-05-25 14:51:00,86.2,56.9,30.40,North,0,0.0,0.0,37,0.00,CLR,SCT,0.00,WeatherDisplay:10.37,2013-05-25 18:51:00,
2013-05-25 14:56:00,86.2,57.6,30.40,North,0,0.0,0.0,38,0.00,CLR,SCT,0.00,WeatherDisplay:10.37,2013-05-25 18:56:00,
2013-05-25 15:01:00,86.5,57.2,30.40,North,0,0.0,0.0,37,0.00,CLR,SCT,0.00,WeatherDisplay:10.37,2013-05-25 19:01:00,
2013-05-25 15:06:00,86.5,57.9,30.40,North,0,0.0,0.0,38,0.00,CLR,SCT,0.00,WeatherDisplay:10.37,2013-05-25 19:06:00,
2013-05-25 15:11:00,86.5,57.2,30.40,North,0,0.0,0.0,37,0.00,CLR,SCT,0.00,WeatherDisplay:10.37,2013-05-25 19:11:00,
2013-05-25 15:16:00,86.7,58.1,30.40,North,0,0.0,0.0,38,0.00,CLR,SCT,0.00,WeatherDisplay:10.37,2013-05-25 19:16:00,
2013-05-25 15:21:00,86.5,57.9,30.40,North,0,0.0,0.0,38,0.00,CLR,SCT,0.00,WeatherDisplay:10.37,2013-05-25 19:21:00,
2013-05-25 15:26:00,86.5,57.2,30.40,North,0,0.0,0.0,37,0.00,CLR,SCT,0.00,WeatherDisplay:10.37,2013-05-25 19:26:00,
2013-05-25 15:31:00,86.5,57.2,30.40,North,0,0.0,0.0,37,0.00,CLR,SCT,0.00,WeatherDisplay:10.37,2013-05-25 19:31:00,
2013-05-25 15:37:00,86.5,56.4,30.40,North,0,0.0,0.0,36,0.00,CLR,SCT,0.00,WeatherDisplay:10.37,2013-05-25 19:37:00,
2013-05-25 15:42:00,86.7,56.6,30.40,North,0,0.0,0.0,36,0.00,CLR,SCT,0.00,WeatherDisplay:10.37,2013-05-25 19:42:00,
2013-05-25 15:47:00,86.7,56.6,30.40,North,0,0.0,0.0,36,0.00,CLR,SCT,0.00,WeatherDisplay:10.37,2013-05-25 19:47:00,
2013-05-25 15:52:00,86.7,56.6,30.40,North,0,0.0,0.0,36,0.00,CLR,SCT,0.00,WeatherDisplay:10.37,2013-05-25 19:52:00,
2013-05-25 15:57:00,86.9,56.7,30.40,North,0,0.0,0.0,36,0.00,CLR,SCT,0.00,WeatherDisplay:10.37,2013-05-25 19:57:00,
2013-05-25 16:02:00,86.9,56.7,30.40,North,0,0.0,0.0,36,0.00,CLR,SCT,0.00,WeatherDisplay:10.37,2013-05-25 20:02:00,
2013-05-25 16:07:00,86.5,55.6,30.40,North,0,0.0,0.0,35,0.00,CLR,SCT,0.00,WeatherDisplay:10.37,2013-05-25 20:07:00,
2013-05-25 16:12:00,86.9,56.0,30.40,North,0,0.0,0.0,35,0.00,CLR,SCT,0.00,WeatherDisplay:10.37,2013-05-25 20:12:00,
2013-05-25 16:17:00,86.7,55.0,30.40,North,0,0.0,0.0,34,0.00,CLR,SCT,0.00,WeatherDisplay:10.37,2013-05-25 20:17:00,
2013-05-25 16:22:00,86.7,55.8,30.40,North,0,0.0,0.0,35,0.00,CLR,SCT,0.00,WeatherDisplay:10.37,2013-05-25 20:22:00,
2013-05-25 16:27:00,86.9,55.2,30.40,North,0,0.0,0.0,34,0.00,CLR,SCT,0.00,WeatherDisplay:10.37,2013-05-25 20:27:00,
2013-05-25 16:32:00,86.9,54.3,30.40,North,0,0.0,0.0,33,0.00,CLR,SCT,0.00,WeatherDisplay:10.37,2013-05-25 20:32:00,
2013-05-25 16:37:00,86.7,53.3,30.40,North,0,0.0,0.0,32,0.00,CLR,SCT,0.00,WeatherDisplay:10.37,2013-05-25 20:37:00,
2013-05-25 16:42:00,86.9,54.3,30.40,North,0,0.0,0.0,33,0.00,CLR,SCT,0.00,WeatherDisplay:10.37,2013-05-25 20:42:00,
2013-05-25 16:47:00,88.2,56.3,30.40,North,0,0.0,0.0,34,0.00,CLR,SCT,0.00,WeatherDisplay:10.37,2013-05-25 20:47:00,
2013-05-25 16:52:00,90.1,57.2,30.40,North,0,0.0,0.0,33,0.00,CLR,SCT,0.00,WeatherDisplay:10.37,2013-05-25 20:52:00,
2013-05-25 16:57:00,91.0,57.1,30.40,North,0,0.0,0.0,32,0.00,CLR,SCT,0.00,WeatherDisplay:10.37,2013-05-25 20:57:00,
2013-05-25 17:02:00,91.0,57.1,30.40,North,0,0.0,0.0,32,0.00,CLR,SCT,0.00,WeatherDisplay:10.37,2013-05-25 21:02:00,
2013-05-25 17:07:00,91.0,57.1,30.40,North,0,0.0,0.0,32,0.00,CLR,SCT,0.00,WeatherDisplay:10.37,2013-05-25 21:07:00,
2013-05-25 17:12:00,91.6,55.8,30.40,North,0,0.0,0.0,30,0.00,CLR,SCT,0.00,WeatherDisplay:10.37,2013-05-25 21:12:00,
2013-05-25 17:17:00,91.0,56.2,30.40,North,0,0.0,0.0,31,0.00,CLR,SCT,0.00,WeatherDisplay:10.37,2013-05-25 21:17:00,
2013-05-25 17:22:00,89.8,55.1,30.40,North,0,0.0,0.0,31,0.00,CLR,SCT,0.00,WeatherDisplay:10.37,2013-05-25 21:22:00,
2013-05-25 17:27:00,89.2,54.6,30.40,North,0,0.0,0.0,31,0.00,CLR,SCT,0.00,WeatherDisplay:10.37,2013-05-25 21:27:00,
2013-05-25 17:32:00,88.9,55.2,30.40,North,0,0.0,0.0,32,0.00,CLR,SCT,0.00,WeatherDisplay:10.37,2013-05-25 21:32:00,
2013-05-25 17:37:00,88.3,54.7,30.40,North,0,0.0,0.0,32,0.00,CLR,SCT,0.00,WeatherDisplay:10.37,2013-05-25 21:37:00,
2013-05-25 17:42:00,88.2,54.6,30.40,North,0,0.0,0.0,32,0.00,CLR,SCT,0.00,WeatherDisplay:10.37,2013-05-25 21:42:00,
2013-05-25 17:47:00,88.0,54.4,30.40,North,0,0.0,0.0,32,0.00,CLR,SCT,0.00,WeatherDisplay:10.37,2013-05-25 21:47:00,
2013-05-25 17:52:00,88.5,54.0,30.40,North,0,0.0,0.0,31,0.00,CLR,SCT,0.00,WeatherDisplay:10.37,2013-05-25 21:52:00,
2013-05-25 17:57:00,88.5,54.0,30.40,North,0,0.0,0.0,31,0.00,CLR,SCT,0.00,WeatherDisplay:10.37,2013-05-25 21:57:00,
2013-05-25 18:02:00,88.3,54.7,30.40,North,0,0.0,0.0,32,0.00,CLR,SCT,0.00,WeatherDisplay:10.37,2013-05-25 22:02:00,
2013-05-25 18:07:00,92.7,55.8,30.40,North,0,0.0,0.0,29,0.00,CLR,SCT,0.00,WeatherDisplay:10.37,2013-05-25 22:07:00,
2013-05-25 18:12:00,98.1,55.1,30.40,North,0,0.0,0.0,24,0.00,CLR,SCT,0.00,WeatherDisplay:10.37,2013-05-25 22:12:00,
2013-05-25 18:17:00,101.7,53.1,30.40,North,0,0.0,0.0,20,0.00,CLR,SCT,0.00,WeatherDisplay:10.37,2013-05-25 22:17:00,
2013-05-25 18:22:00,101.5,48.6,30.40,North,0,0.0,0.0,17,0.00,CLR,SCT,0.00,WeatherDisplay:10.37,2013-05-25 22:22:00,
2013-05-25 18:27:00,96.3,48.7,30.40,North,0,0.0,0.0,20,0.00,CLR,SCT,0.00,WeatherDisplay:10.37,2013-05-25 22:27:00,
2013-05-25 18:32:00,96.6,49.0,30.40,North,0,0.0,0.0,20,0.00,CLR,SCT,0.00,WeatherDisplay:10.37,2013-05-25 22:32:00,
2013-05-25 18:37:00,95.2,47.8,30.40,North,0,0.0,0.0,20,0.00,CLR,SCT,0.00,WeatherDisplay:10.37,2013-05-25 22:37:00,
2013-05-25 18:42:00,93.6,47.8,30.40,North,0,0.0,0.0,21,0.00,CLR,SCT,0.00,WeatherDisplay:10.37,2013-05-25 22:42:00,
2013-05-25 18:47:00,90.0,51.5,30.40,North,0,0.0,0.0,27,0.00,CLR,SCT,0.00,WeatherDisplay:10.37,2013-05-25 22:47:00,
2013-05-25 18:52:00,89.1,52.7,30.40,North,0,0.0,0.0,29,0.00,CLR,SCT,0.00,WeatherDisplay:10.37,2013-05-25 22:52:00,
2013-05-25 18:57:00,88.0,52.7,30.40,North,0,0.0,0.0,30,0.00,CLR,SCT,0.00,WeatherDisplay:10.37,2013-05-25 22:57:00,
2013-05-25 19:02:00,87.6,54.1,30.40,North,0,0.0,0.0,32,0.00,CLR,SCT,0.00,WeatherDisplay:10.37,2013-05-25 23:02:00,
2013-05-25 19:07:00,88.7,55.1,30.40,North,0,0.0,0.0,32,0.00,CLR,SCT,0.00,WeatherDisplay:10.37,2013-05-25 23:07:00,
2013-05-25 19:12:00,87.3,53.8,30.40,North,0,0.0,0.0,32,0.00,CLR,SCT,0.00,WeatherDisplay:10.37,2013-05-25 23:12:00,
2013-05-25 19:17:00,86.9,54.3,30.40,North,0,0.0,0.0,33,0.00,CLR,SCT,0.00,WeatherDisplay:10.37,2013-05-25 23:17:00,
2013-05-25 19:22:00,85.8,54.2,30.40,North,0,0.0,0.0,34,0.00,CLR,SCT,0.00,WeatherDisplay:10.37,2013-05-25 23:22:00,
2013-05-25 19:27:00,85.3,54.5,30.40,North,0,0.0,0.0,35,0.00,CLR,SCT,0.00,WeatherDisplay:10.37,2013-05-25 23:27:00,
2013-05-25 19:32:00,84.9,55.0,30.40,North,0,0.0,0.0,36,0.00,CLR,SCT,0.00,WeatherDisplay:10.37,2013-05-25 23:32:00,
2013-05-25 19:37:00,84.6,54.7,30.40,North,0,0.0,0.0,36,0.00,CLR,SCT,0.00,WeatherDisplay:10.37,2013-05-25 23:37:00,
2013-05-25 19:42:00,84.2,55.1,30.40,North,0,0.0,0.0,37,0.00,CLR,SCT,0.00,WeatherDisplay:10.37,2013-05-25 23:42:00,
2013-05-25 19:47:00,83.7,55.4,30.40,North,0,0.0,0.0,38,0.00,CLR,SCT,0.00,WeatherDisplay:10.37,2013-05-25 23:47:00,
2013-05-25 19:52:00,83.5,55.2,30.40,North,0,0.0,0.0,38,0.00,CLR,SCT,0.00,WeatherDisplay:10.37,2013-05-25 23:52:00,
2013-05-25 19:57:00,83.1,55.6,30.40,North,0,0.0,0.0,39,0.00,CLR,SCT,0.00,WeatherDisplay:10.37,2013-05-25 23:57:00,
2013-05-25 20:02:00,82.9,55.4,30.40,North,0,0.0,0.0,39,0.00,CLR,SCT,0.00,WeatherDisplay:10.37,2013-05-26 00:02:00,
2013-05-25 20:07:00,82.6,55.1,30.40,North,0,0.0,0.0,39,0.00,CLR,SCT,0.00,WeatherDisplay:10.37,2013-05-26 00:07:00,
2013-05-25 20:12:00,82.6,55.1,30.40,North,0,0.0,0.0,39,0.00,CLR,SCT,0.00,WeatherDisplay:10.37,2013-05-26 00:12:00,
2013-05-25 20:17:00,82.4,55.0,30.40,North,0,0.0,0.0,39,0.00,CLR,SCT,0.00,WeatherDisplay:10.37,2013-05-26 00:17:00,
2013-05-25 20:22:00,82.0,55.3,30.40,North,0,0.0,0.0,40,0.00,CLR,SCT,0.00,WeatherDisplay:10.37,2013-05-26 00:22:00,
2013-05-25 20:27:00,82.0,54.6,30.40,North,0,0.0,0.0,39,0.00,CLR,SCT,0.00,WeatherDisplay:10.37,2013-05-26 00:27:00,
2013-05-25 20:32:00,81.9,55.2,30.40,North,0,0.0,0.0,40,0.00,CLR,SCT,0.00,WeatherDisplay:10.37,2013-05-26 00:32:00,
2013-05-25 20:37:00,81.9,55.2,30.40,North,0,0.0,0.0,40,0.00,CLR,SCT,0.00,WeatherDisplay:10.37,2013-05-26 00:37:00,
2013-05-25 20:42:00,81.5,55.5,30.40,North,0,0.0,0.0,41,0.00,CLR,SCT,0.00,WeatherDisplay:10.37,2013-05-26 00:42:00,
2013-05-25 20:47:00,81.7,55.0,30.40,North,0,0.0,0.0,40,0.00,CLR,SCT,0.00,WeatherDisplay:10.37,2013-05-26 00:47:00,
2013-05-25 20:52:00,81.5,54.8,30.40,North,0,0.0,0.0,40,0.00,CLR,SCT,0.00,WeatherDisplay:10.37,2013-05-26 00:52:00,
2013-05-25 20:58:00,81.5,55.5,30.40,North,0,0.0,0.0,41,0.00,CLR,SCT,0.00,WeatherDisplay:10.37,2013-05-26 00:58:00,
2013-05-25 21:02:00,81.3,56.0,30.40,North,0,0.0,0.0,42,0.00,CLR,SCT,0.00,WeatherDisplay:10.37,2013-05-26 01:02:00,
2013-05-25 21:08:00,81.1,55.9,30.40,North,0,0.0,0.0,42,0.00,CLR,SCT,0.00,WeatherDisplay:10.37,2013-05-26 01:08:00,
2013-05-25 21:13:00,81.1,55.9,30.40,North,0,0.0,0.0,42,0.00,CLR,SCT,0.00,WeatherDisplay:10.37,2013-05-26 01:13:00,
2013-05-25 21:18:00,80.8,54.9,30.40,North,0,0.0,0.0,41,0.00,CLR,SCT,0.00,WeatherDisplay:10.37,2013-05-26 01:18:00,
2013-05-25 21:23:00,80.8,54.9,30.40,North,0,0.0,0.0,41,0.00,CLR,SCT,0.00,WeatherDisplay:10.37,2013-05-26 01:23:00,
2013-05-25 21:28:00,80.6,54.7,30.40,North,0,0.0,0.0,41,0.00,CLR,SCT,0.00,WeatherDisplay:10.37,2013-05-26 01:28:00,
2013-05-25 21:33:00,80.6,55.4,30.40,North,0,0.0,0.0,42,0.00,CLR,SCT,0.00,WeatherDisplay:10.37,2013-05-26 01:33:00,
2013-05-25 21:38:00,80.6,55.4,30.40,North,0,0.0,0.0,42,0.00,CLR,SCT,0.00,WeatherDisplay:10.37,2013-05-26 01:38:00,
2013-05-25 21:43:00,80.4,55.2,30.40,North,0,0.0,0.0,42,0.00,CLR,SCT,0.00,WeatherDisplay:10.37,2013-05-26 01:43:00,
2013-05-25 21:48:00,80.2,55.7,30.40,North,0,0.0,0.0,43,0.00,CLR,SCT,0.00,WeatherDisplay:10.37,2013-05-26 01:48:00,
2013-05-25 21:53:00,80.1,55.5,30.40,North,0,0.0,0.0,43,0.00,CLR,SCT,0.00,WeatherDisplay:10.37,2013-05-26 01:53:00,
2013-05-25 21:58:00,80.1,54.9,30.40,North,0,0.0,0.0,42,0.00,CLR,SCT,0.00,WeatherDisplay:10.37,2013-05-26 01:58:00,
2013-05-25 22:03:00,79.9,54.1,30.40,North,0,0.0,0.0,41,0.00,CLR,SCT,0.00,WeatherDisplay:10.37,2013-05-26 02:03:00,
2013-05-25 22:08:00,79.9,54.7,30.40,North,0,0.0,0.0,42,0.00,CLR,SCT,0.00,WeatherDisplay:10.37,2013-05-26 02:08:00,
2013-05-25 22:13:00,79.9,54.7,30.40,North,0,0.0,0.0,42,0.00,CLR,SCT,0.00,WeatherDisplay:10.37,2013-05-26 02:13:00,
2013-05-25 22:18:00,79.7,54.6,30.40,North,0,0.0,0.0,42,0.00,CLR,SCT,0.00,WeatherDisplay:10.37,2013-05-26 02:18:00,
2013-05-25 22:23:00,79.7,54.6,30.40,North,0,0.0,0.0,42,0.00,CLR,SCT,0.00,WeatherDisplay:10.37,2013-05-26 02:23:00,
2013-05-25 22:28:00,79.7,55.2,30.40,North,0,0.0,0.0,43,0.00,CLR,SCT,0.00,WeatherDisplay:10.37,2013-05-26 02:28:00,
2013-05-25 22:33:00,79.7,55.2,30.40,North,0,0.0,0.0,43,0.00,CLR,SCT,0.00,WeatherDisplay:10.37,2013-05-26 02:33:00,
2013-05-25 22:38:00,79.7,55.9,30.40,North,0,0.0,0.0,44,0.00,CLR,SCT,0.00,WeatherDisplay:10.37,2013-05-26 02:38:00,
2013-05-25 22:43:00,79.7,55.9,30.40,North,0,0.0,0.0,44,0.00,CLR,SCT,0.00,WeatherDisplay:10.37,2013-05-26 02:43:00,
2013-05-25 22:48:00,79.5,55.7,30.40,North,0,0.0,0.0,44,0.00,CLR,SCT,0.00,WeatherDisplay:10.37,2013-05-26 02:48:00,
2013-05-25 22:53:00,79.7,55.2,30.40,North,0,0.0,0.0,43,0.00,CLR,SCT,0.00,WeatherDisplay:10.37,2013-05-26 02:53:00,
2013-05-25 22:58:00,79.5,55.1,30.40,North,0,0.0,0.0,43,0.00,CLR,SCT,0.00,WeatherDisplay:10.37,2013-05-26 02:58:00,
2013-05-25 23:03:00,79.5,55.7,30.40,North,0,0.0,0.0,44,0.00,CLR,SCT,0.00,WeatherDisplay:10.37,2013-05-26 03:03:00,
2013-05-25 23:08:00,79.5,55.7,30.40,North,0,0.0,0.0,44,0.00,CLR,SCT,0.00,WeatherDisplay:10.37,2013-05-26 03:08:00,
2013-05-25 23:13:00,79.3,55.5,30.40,North,0,0.0,0.0,44,0.00,CLR,SCT,0.00,WeatherDisplay:10.37,2013-05-26 03:13:00,
2013-05-25 23:18:00,79.3,55.5,30.40,North,0,0.0,0.0,44,0.00,CLR,SCT,0.00,WeatherDisplay:10.37,2013-05-26 03:18:00,
2013-05-25 23:23:00,79.3,55.5,30.40,North,0,0.0,0.0,44,0.00,CLR,SCT,0.00,WeatherDisplay:10.37,2013-05-26 03:23:00,
2013-05-25 23:28:00,79.3,56.2,30.40,North,0,0.0,0.0,45,0.00,CLR,SCT,0.00,WeatherDisplay:10.37,2013-05-26 03:28:00,
2013-05-25 23:33:00,79.2,56.0,30.40,North,0,0.0,0.0,45,0.00,CLR,SCT,0.00,WeatherDisplay:10.37,2013-05-26 03:33:00,
2013-05-25 23:38:00,79.2,56.0,30.40,North,0,0.0,0.0,45,0.00,CLR,SCT,0.00,WeatherDisplay:10.37,2013-05-26 03:38:00,
2013-05-25 23:43:00,79.2,55.4,30.40,North,0,0.0,0.0,44,0.00,CLR,SCT,0.00,WeatherDisplay:10.37,2013-05-26 03:43:00,
2013-05-25 23:48:00,79.0,54.6,30.40,North,0,0.0,0.0,43,0.00,CLR,SCT,0.00,WeatherDisplay:10.37,2013-05-26 03:48:00,
2013-05-25 23:53:00,79.0,54.6,30.40,North,0,0.0,0.0,43,0.00,CLR,SCT,0.00,WeatherDisplay:10.37,2013-05-26 03:53:00,
2013-05-25 23:58:00,78.8,54.4,30.40,North,0,0.0,0.0,43,0.00,CLR,SCT,0.00,WeatherDisplay:10.37,2013-05-26 03:58:00,